Time;durP1;ratioP1;P1;durP2;ratioP2;P2;SDS_P1;SDS_P2;PMS_P1;PMS_P2;Temp;Humidity;BMP_temperature;BMP_pressure;BME280_temperature;BME280_humidity;BME280_pressure;Samples;Min_cycle;Max_cycle;Signal;HPM_P1;HPM_P2
2020/12/18 00:02:03;;;;;;;8.63;5.00;;;;;;;7.09;100.00;101503.41;4973319;28;20378;-74
2020/12/18 00:04:30;;;;;;;7.77;5.10;;;;;;;6.98;100.00;101506.88;4957307;28;20181;-74
2020/12/18 00:06:56;;;;;;;6.70;5.00;;;;;;;7.01;100.00;101507.25;4957452;28;20622;-74
2020/12/18 00:09:24;;;;;;;9.93;5.70;;;;;;;6.97;100.00;101505.22;4957578;28;20260;-74
2020/12/18 00:11:50;;;;;;;8.23;5.13;;;;;;;7.10;100.00;101502.34;5005576;28;20221;-74
2020/12/18 00:14:15;;;;;;;8.10;5.17;;;;;;;6.98;100.00;101501.47;4956894;28;20186;-74
2020/12/18 00:16:46;;;;;;;7.70;5.17;;;;;;;7.05;100.00;101502.19;4956051;28;20229;-74
2020/12/18 00:19:16;;;;;;;9.23;5.37;;;;;;;7.12;100.00;101498.34;4973668;28;20290;-74
2020/12/18 00:21:46;;;;;;;8.23;5.27;;;;;;;7.21;100.00;101496.16;4973283;28;20229;-74
2020/12/18 00:24:12;;;;;;;7.13;4.90;;;;;;;7.26;100.00;101499.00;4973448;28;20669;-74
2020/12/18 00:26:37;;;;;;;6.50;4.97;;;;;;;7.14;100.00;101507.06;4989213;28;20225;-74
2020/12/18 00:29:08;;;;;;;7.87;5.13;;;;;;;7.18;100.00;101505.56;4958319;28;20221;-74
2020/12/18 00:31:38;;;;;;;10.57;6.80;;;;;;;7.19;100.00;101503.66;4990365;28;20268;-73
2020/12/18 00:34:03;;;;;;;73.40;30.90;;;;;;;7.20;100.00;101499.91;4957835;28;20643;-73
2020/12/18 00:36:29;;;;;;;41.37;16.27;;;;;;;7.31;100.00;101503.47;4973177;28;20222;-74
2020/12/18 00:38:57;;;;;;;177.07;55.70;;;;;;;7.39;100.00;101503.13;4977669;28;20603;-73
2020/12/18 00:41:23;;;;;;;122.27;41.33;;;;;;;7.52;100.00;101507.53;4981230;28;20312;-73
2020/12/18 00:43:53;;;;;;;42.47;21.07;;;;;;;7.46;100.00;101517.38;4993096;28;20709;-73
2020/12/18 00:46:19;;;;;;;12.73;9.63;;;;;;;7.57;100.00;101513.88;4963471;28;20761;-73
2020/12/18 00:48:50;;;;;;;9.23;5.50;;;;;;;7.44;100.00;101499.75;4980610;28;20694;-73
2020/12/18 00:51:16;;;;;;;5.93;4.33;;;;;;;7.33;100.00;101498.66;4992455;28;20295;-73
2020/12/18 00:53:46;;;;;;;8.97;4.80;;;;;;;7.30;100.00;101496.41;5008371;28;20189;-74
2020/12/18 00:56:13;;;;;;;8.27;5.40;;;;;;;7.22;100.00;101497.81;4991836;28;20252;-73
2020/12/18 00:58:43;;;;;;;7.93;4.60;;;;;;;7.32;100.00;101505.09;4962062;28;20824;-73
2020/12/18 01:01:12;;;;;;;8.17;4.50;;;;;;;7.24;100.00;101511.91;4992188;28;20275;-73
2020/12/18 01:03:38;;;;;;;7.23;4.40;;;;;;;7.21;100.00;101512.38;4976665;28;20185;-74
2020/12/18 01:06:10;;;;;;;7.87;4.00;;;;;;;7.28;100.00;101513.91;4975518;28;20225;-73
2020/12/18 01:08:43;;;;;;;6.37;4.30;;;;;;;7.55;100.00;101516.00;4977026;28;20244;-73
2020/12/18 01:11:15;;;;;;;8.07;4.13;;;;;;;7.53;100.00;101515.41;5007226;28;20287;-73
2020/12/18 01:13:44;;;;;;;9.10;4.23;;;;;;;7.49;100.00;101511.53;5008369;28;20193;-73
2020/12/18 01:16:11;;;;;;;5.67;4.03;;;;;;;7.42;100.00;101504.56;4959468;28;20264;-73
2020/12/18 01:18:40;;;;;;;7.23;3.97;;;;;;;7.50;100.00;101502.34;4960630;28;20178;-73
2020/12/18 01:21:06;;;;;;;6.50;3.93;;;;;;;7.51;100.00;101503.16;4959589;28;20226;-73
2020/12/18 01:23:39;;;;;;;6.10;3.67;;;;;;;7.54;100.00;101508.94;4961928;28;20687;-73
2020/12/18 01:26:09;;;;;;;8.20;4.03;;;;;;;7.54;100.00;101514.34;4991011;28;20329;-73
2020/12/18 01:28:38;;;;;;;5.47;4.10;;;;;;;7.51;100.00;101508.56;4989011;28;20296;-73
2020/12/18 01:31:05;;;;;;;6.17;3.83;;;;;;;7.52;100.00;101515.63;5000255;28;20213;-74
2020/12/18 01:33:34;;;;;;;6.17;3.80;;;;;;;7.52;100.00;101511.03;5011670;28;20676;-74
2020/12/18 01:36:05;;;;;;;6.67;4.07;;;;;;;7.50;100.00;101521.25;4993350;28;20225;-73
2020/12/18 01:38:34;;;;;;;5.87;3.77;;;;;;;7.43;100.00;101519.72;4976771;28;20189;-74
2020/12/18 01:41:04;;;;;;;6.43;4.17;;;;;;;7.56;100.00;101523.03;4993230;28;20701;-74
2020/12/18 01:43:32;;;;;;;7.13;4.13;;;;;;;7.58;100.00;101531.75;4985754;28;20190;-73
2020/12/18 01:45:59;;;;;;;8.00;3.97;;;;;;;7.49;100.00;101527.75;4992937;28;20753;-73
2020/12/18 01:48:27;;;;;;;6.50;4.13;;;;;;;7.46;100.00;101528.19;4978401;28;20679;-73
2020/12/18 01:51:03;;;;;;;6.57;4.17;;;;;;;7.28;100.00;101534.72;4957108;28;20594;-73
2020/12/18 01:53:35;;;;;;;8.47;4.60;;;;;;;7.13;100.00;101529.72;4957066;28;20189;-73
2020/12/18 01:56:12;;;;;;;5.77;4.57;;;;;;;7.13;100.00;101531.59;4959092;28;20377;-73
2020/12/18 01:58:40;;;;;;;7.10;4.70;;;;;;;6.99;100.00;101530.13;4956858;28;20686;-73
2020/12/18 02:01:12;;;;;;;7.17;4.90;;;;;;;6.92;100.00;101534.78;4957218;28;20236;-73
2020/12/18 02:03:53;;;;;;;7.80;4.70;;;;;;;6.82;100.00;101534.50;4959328;28;20193;-74
2020/12/18 02:06:30;;;;;;;6.70;4.90;;;;;;;6.83;100.00;101528.06;4972135;28;20222;-73
2020/12/18 02:09:06;;;;;;;8.73;5.23;;;;;;;6.91;100.00;101533.13;4958857;28;20237;-73
2020/12/18 02:11:41;;;;;;;6.63;5.00;;;;;;;6.83;100.00;101529.91;4957685;28;20690;-73
2020/12/18 02:14:14;;;;;;;9.70;5.40;;;;;;;6.70;100.00;101539.03;4957483;28;20274;-73
2020/12/18 02:16:45;;;;;;;8.27;5.20;;;;;;;6.67;100.00;101534.06;4973854;28;20730;-73
2020/12/18 02:19:18;;;;;;;7.80;5.40;;;;;;;6.66;100.00;101543.19;4976311;28;20220;-73
2020/12/18 02:21:47;;;;;;;8.10;5.97;;;;;;;6.58;100.00;101537.28;4990402;28;20240;-73
2020/12/18 02:24:28;;;;;;;9.27;5.70;;;;;;;6.46;100.00;101546.34;4974480;28;20189;-73
2020/12/18 02:26:56;;;;;;;6.77;5.63;;;;;;;6.50;100.00;101540.25;4974875;28;20635;-73
2020/12/18 02:29:25;;;;;;;7.17;5.37;;;;;;;6.54;100.00;101536.91;4990988;28;20205;-73
2020/12/18 02:32:03;;;;;;;8.53;5.33;;;;;;;6.59;100.00;101539.78;4992228;28;20328;-73
2020/12/18 02:34:37;;;;;;;10.23;6.03;;;;;;;6.69;100.00;101540.06;4990880;28;20182;-73
2020/12/18 02:37:12;;;;;;;11.17;5.57;;;;;;;6.88;100.00;101538.97;4990741;28;20225;-73
2020/12/18 02:39:41;;;;;;;9.80;6.00;;;;;;;6.92;100.00;101540.16;4991144;28;20565;-73
2020/12/18 02:42:17;;;;;;;8.20;5.67;;;;;;;6.95;100.00;101550.53;4976018;28;20665;-73
2020/12/18 02:44:53;;;;;;;8.90;5.43;;;;;;;7.05;100.00;101545.41;4959424;28;20236;-74
2020/12/18 02:47:39;;;;;;;7.47;5.20;;;;;;;7.02;100.00;101533.19;4983029;28;20224;-73
2020/12/18 02:50:21;;;;;;;7.47;5.07;;;;;;;7.05;100.00;101545.41;4977470;28;20186;-74
2020/12/18 02:52:50;;;;;;;6.87;4.77;;;;;;;7.06;100.00;101536.25;5007114;28;20234;-74
2020/12/18 02:55:34;;;;;;;6.90;4.50;;;;;;;7.05;100.00;101542.69;4990458;28;20793;-73
2020/12/18 02:58:21;;;;;;;7.53;4.23;;;;;;;7.06;100.00;101541.66;4991263;28;20718;-73
2020/12/18 03:00:51;;;;;;;8.67;4.53;;;;;;;7.08;100.00;101536.84;4974907;28;20645;-73
2020/12/18 03:03:21;;;;;;;8.30;3.70;;;;;;;7.15;100.00;101535.72;4991313;28;20181;-73
2020/12/18 03:05:53;;;;;;;9.57;4.23;;;;;;;7.07;100.00;101533.34;4989675;28;20226;-73
2020/12/18 03:08:26;;;;;;;6.50;3.83;;;;;;;7.08;100.00;101539.56;4975732;28;20216;-73
2020/12/18 03:10:58;;;;;;;7.90;3.53;;;;;;;7.13;100.00;101537.00;4990439;28;20263;-73
2020/12/18 03:13:28;;;;;;;7.60;3.57;;;;;;;7.13;100.00;101532.41;4990686;28;20194;-73
2020/12/18 03:15:56;;;;;;;5.53;3.93;;;;;;;7.30;100.00;101528.00;4970659;28;20316;-73
2020/12/18 03:18:25;;;;;;;6.40;3.87;;;;;;;7.22;100.00;101541.03;4974693;28;20193;-74
2020/12/18 03:20:52;;;;;;;6.17;3.97;;;;;;;7.31;100.00;101530.50;4989688;28;20669;-73
2020/12/18 03:23:49;;;;;;;7.17;3.80;;;;;;;7.38;100.00;101539.34;4982691;28;20677;-73
2020/12/18 03:26:15;;;;;;;5.60;3.53;;;;;;;7.30;100.00;101534.25;4989228;28;20279;-73
2020/12/18 03:28:49;;;;;;;6.70;3.53;;;;;;;7.29;100.00;101538.00;4975110;28;20611;-74
2020/12/18 03:31:15;;;;;;;7.03;3.27;;;;;;;7.48;100.00;101541.47;4971184;28;20252;-73
2020/12/18 03:33:42;;;;;;;5.97;3.43;;;;;;;7.30;100.00;101545.03;4990342;28;20927;-74
2020/12/18 03:36:25;;;;;;;7.00;3.30;;;;;;;7.43;100.00;101544.84;4946871;28;20222;-73
2020/12/18 03:38:53;;;;;;;5.33;3.60;;;;;;;7.43;100.00;101539.44;4955096;28;20209;-73
2020/12/18 03:41:23;;;;;;;6.23;3.40;;;;;;;7.30;100.00;101539.66;4961510;28;20225;-73
2020/12/18 03:43:53;;;;;;;5.27;3.20;;;;;;;7.35;100.00;101536.28;4990142;28;20285;-73
2020/12/18 03:46:19;;;;;;;3.77;3.00;;;;;;;7.34;100.00;101534.59;4988937;28;20268;-73
2020/12/18 03:49:08;;;;;;;4.73;3.07;;;;;;;7.12;100.00;101536.16;4991526;28;20301;-73
2020/12/18 03:51:40;;;;;;;5.37;3.20;;;;;;;7.11;100.00;101539.13;4990344;28;20236;-73
2020/12/18 03:54:12;;;;;;;4.77;2.90;;;;;;;7.12;100.00;101543.44;4989446;28;20999;-73
2020/12/18 03:57:10;;;;;;;4.93;3.30;;;;;;;6.88;100.00;101533.59;4968303;28;20229;-74
2020/12/18 03:59:58;;;;;;;5.43;3.43;;;;;;;6.85;100.00;101542.16;4977018;28;20671;-74
2020/12/18 04:02:39;;;;;;;6.73;3.33;;;;;;;6.70;100.00;101547.13;4989822;28;20209;-74
2020/12/18 04:05:06;;;;;;;6.97;3.43;;;;;;;6.63;100.00;101540.97;4988585;28;20260;-73
2020/12/18 04:07:37;;;;;;;6.80;4.00;;;;;;;6.60;100.00;101544.09;4963940;28;20568;-74
2020/12/18 04:10:15;;;;;;;5.30;3.60;;;;;;;6.62;100.00;101549.28;4971608;28;20197;-73
2020/12/18 04:13:00;;;;;;;6.47;3.67;;;;;;;6.64;100.00;101558.78;4981484;28;20694;-73
2020/12/18 04:15:26;;;;;;;5.03;3.43;;;;;;;6.66;100.00;101554.00;4992996;28;20245;-73
2020/12/18 04:17:52;;;;;;;5.70;3.67;;;;;;;6.72;100.00;101555.81;4977183;28;20178;-73
2020/12/18 04:20:18;;;;;;;5.40;3.40;;;;;;;6.50;100.00;101555.63;4960797;28;20192;-74
2020/12/18 04:23:06;;;;;;;6.77;3.80;;;;;;;6.51;100.00;101557.31;4980045;28;20193;-73
2020/12/18 04:25:52;;;;;;;6.17;3.60;;;;;;;6.43;100.00;101553.03;4971564;28;20225;-74
2020/12/18 04:28:23;;;;;;;4.53;3.50;;;;;;;6.35;100.00;101560.56;4961595;28;20246;-74
2020/12/18 04:30:51;;;;;;;5.70;3.70;;;;;;;6.36;100.00;101549.56;4977309;28;20698;-74
2020/12/18 04:33:17;;;;;;;5.80;3.80;;;;;;;6.24;100.00;101550.50;4976719;28;20264;-73
2020/12/18 04:35:43;;;;;;;7.93;4.27;;;;;;;6.22;100.00;101552.59;4991945;28;20225;-74
2020/12/18 04:38:13;;;;;;;5.83;3.93;;;;;;;6.20;100.00;101554.69;4977748;28;20182;-73
2020/12/18 04:41:01;;;;;;;7.27;4.43;;;;;;;6.26;100.00;101561.91;4951525;28;20214;-73
2020/12/18 04:43:37;;;;;;;8.47;4.67;;;;;;;6.16;100.00;101564.28;4980774;28;20208;-73
2020/12/18 04:46:13;;;;;;;8.87;4.07;;;;;;;6.22;100.00;101558.00;4957208;28;20225;-73
2020/12/18 04:48:39;;;;;;;9.57;4.50;;;;;;;6.16;100.00;101558.91;4952757;28;20635;-73
2020/12/18 04:51:17;;;;;;;6.03;4.10;;;;;;;6.10;100.00;101557.09;4959190;28;20782;-73
2020/12/18 04:53:50;;;;;;;8.67;4.57;;;;;;;6.01;100.00;101561.09;4961148;28;20216;-74
2020/12/18 04:56:28;;;;;;;7.10;4.30;;;;;;;6.15;100.00;101551.84;4960866;28;20228;-73
2020/12/18 04:59:07;;;;;;;5.43;4.27;;;;;;;6.03;100.00;101550.94;4991538;28;20192;-73
2020/12/18 05:01:48;;;;;;;8.10;4.53;;;;;;;6.01;100.00;101550.31;4962844;28;20236;-73
2020/12/18 05:04:19;;;;;;;7.77;4.50;;;;;;;6.04;100.00;101551.75;4975936;28;20208;-74
2020/12/18 05:06:55;;;;;;;8.30;4.80;;;;;;;6.11;100.00;101550.63;4963549;28;20229;-73
2020/12/18 05:09:35;;;;;;;7.13;3.97;;;;;;;5.91;100.00;101555.38;4965929;28;20240;-73
2020/12/18 05:12:08;;;;;;;8.43;4.40;;;;;;;5.87;100.00;101554.16;4975667;28;20237;-73
2020/12/18 05:14:39;;;;;;;7.30;4.97;;;;;;;5.83;100.00;101547.56;4977231;28;20733;-74
2020/12/18 05:17:19;;;;;;;8.63;4.33;;;;;;;5.78;100.00;101560.88;4970325;28;20812;-73
2020/12/18 05:19:47;;;;;;;6.80;4.57;;;;;;;5.74;100.00;101564.22;4992663;28;20186;-73
2020/12/18 05:22:45;;;;;;;9.60;4.60;;;;;;;5.72;100.00;101568.16;4991999;28;20210;-73
2020/12/18 05:25:36;;;;;;;6.83;4.60;;;;;;;5.70;100.00;101556.78;4994138;28;20680;-73
2020/12/18 05:28:03;;;;;;;11.00;5.20;;;;;;;5.64;100.00;101563.88;4992166;28;20261;-73
2020/12/18 05:30:31;;;;;;;6.40;4.97;;;;;;;5.66;100.00;101555.53;4975079;28;20221;-74
2020/12/18 05:33:16;;;;;;;7.13;4.97;;;;;;;5.62;100.00;101548.94;4979123;28;20193;-74
2020/12/18 05:36:04;;;;;;;6.60;4.87;;;;;;;5.56;100.00;101552.53;4977536;28;20736;-74
2020/12/18 05:38:36;;;;;;;9.10;5.30;;;;;;;5.61;100.00;101556.22;4960691;28;20181;-74
2020/12/18 05:41:13;;;;;;;11.20;5.50;;;;;;;5.64;100.00;101560.34;4976951;28;20241;-74
2020/12/18 05:43:50;;;;;;;10.43;5.40;;;;;;;5.53;100.00;101561.88;4993587;28;20277;-74
2020/12/18 05:46:47;;;;;;;8.53;5.03;;;;;;;5.47;100.00;101551.13;4975965;28;20226;-74
2020/12/18 05:49:34;;;;;;;8.97;5.67;;;;;;;5.42;100.00;101556.34;4988681;28;20265;-74
2020/12/18 05:52:18;;;;;;;10.50;6.20;;;;;;;5.40;100.00;101561.13;4959254;28;20221;-74
2020/12/18 05:55:05;;;;;;;12.23;5.67;;;;;;;5.39;100.00;101556.78;4958440;28;20206;-74
2020/12/18 05:57:43;;;;;;;11.37;6.00;;;;;;;5.41;100.00;101557.41;4959764;28;20186;-74
2020/12/18 06:00:16;;;;;;;9.47;6.07;;;;;;;5.40;100.00;101563.81;4972831;28;20791;-74
2020/12/18 06:02:54;;;;;;;10.67;6.00;;;;;;;5.46;100.00;101562.97;4972391;28;20648;-74
2020/12/18 06:05:33;;;;;;;15.20;7.00;;;;;;;5.39;100.00;101564.88;4972796;28;20218;-74
2020/12/18 06:08:16;;;;;;;14.47;11.13;;;;;;;5.34;100.00;101556.59;4967641;28;20185;-75
2020/12/18 06:10:46;;;;;;;35.63;24.23;;;;;;;5.40;100.00;101558.41;4991268;28;20300;-73
2020/12/18 06:13:14;;;;;;;14.97;9.73;;;;;;;5.39;100.00;101559.47;4990147;28;20178;-75
2020/12/18 06:16:09;;;;;;;11.77;6.30;;;;;;;5.34;100.00;101559.28;4964446;28;20272;-74
2020/12/18 06:18:47;;;;;;;10.00;5.90;;;;;;;5.32;100.00;101564.06;4963583;28;20182;-74
2020/12/18 06:21:23;;;;;;;10.00;6.10;;;;;;;5.28;100.00;101565.56;4990426;28;20217;-75
2020/12/18 06:23:49;;;;;;;12.80;7.80;;;;;;;5.24;100.00;101561.66;4975198;28;20643;-74
2020/12/18 06:26:38;;;;;;;11.87;7.77;;;;;;;5.24;100.00;101566.19;4996381;28;20793;-74
2020/12/18 06:29:19;;;;;;;10.60;7.27;;;;;;;5.32;100.00;101569.47;4963749;28;20221;-74
2020/12/18 06:32:27;;;;;;;13.43;6.77;;;;;;;5.28;100.00;101562.84;4989851;28;20636;-73
2020/12/18 06:35:30;;;;;;;13.70;6.60;;;;;;;5.16;100.00;101555.66;4988966;28;20283;-75
2020/12/18 06:38:26;;;;;;;9.63;6.70;;;;;;;5.14;100.00;101555.88;4989219;28;20194;-73
2020/12/18 06:41:21;;;;;;;8.60;5.40;;;;;;;5.09;100.00;101558.41;4959422;28;20233;-72
2020/12/18 06:44:01;;;;;;;7.37;5.20;;;;;;;4.93;100.00;101551.84;4957222;28;20183;-72
2020/12/18 06:46:35;;;;;;;7.90;5.80;;;;;;;4.74;100.00;101567.06;4964002;28;20232;-72
2020/12/18 06:49:55;;;;;;;10.80;7.83;;;;;;;4.68;100.00;101559.81;4983413;28;20766;-72
2020/12/18 06:53:08;;;;;;;11.80;6.43;;;;;;;4.82;100.00;101568.69;4973797;28;20237;-73
2020/12/18 06:55:57;;;;;;;13.63;7.00;;;;;;;4.83;100.00;101557.69;4962130;28;20230;-73
2020/12/18 06:58:41;;;;;;;11.53;7.03;;;;;;;5.02;100.00;101568.38;4975519;28;20225;-73
2020/12/18 07:01:07;;;;;;;11.23;7.23;;;;;;;4.97;100.00;101557.41;4954777;28;20707;-73
2020/12/18 07:03:46;;;;;;;11.80;7.30;;;;;;;4.97;100.00;101565.50;4987378;28;20182;-73
2020/12/18 07:06:26;;;;;;;11.53;7.40;;;;;;;5.02;100.00;101563.00;4955411;28;20299;-73
2020/12/18 07:08:55;;;;;;;10.93;7.37;;;;;;;4.86;100.00;101561.84;4971639;28;20226;-73
2020/12/18 07:11:21;;;;;;;14.60;7.47;;;;;;;4.86;100.00;101553.75;4954387;28;20711;-73
2020/12/18 07:13:57;;;;;;;14.53;7.47;;;;;;;4.80;100.00;101557.28;4972176;28;20713;-73
2020/12/18 07:16:28;;;;;;;12.37;7.07;;;;;;;4.77;100.00;101552.34;4981851;28;20222;-72
2020/12/18 07:18:58;;;;;;;13.53;7.33;;;;;;;4.74;100.00;101552.75;4987050;28;20213;-74
2020/12/18 07:21:23;;;;;;;13.83;7.70;;;;;;;4.68;100.00;101553.63;4954296;28;20226;-72
2020/12/18 07:23:55;;;;;;;11.33;7.30;;;;;;;4.63;100.00;101556.97;4955072;28;20557;-72
2020/12/18 07:26:23;;;;;;;11.13;7.23;;;;;;;4.64;100.00;101557.78;4955244;28;20230;-73
2020/12/18 07:28:49;;;;;;;11.17;7.10;;;;;;;4.59;100.00;101550.31;4970838;28;20213;-72
2020/12/18 07:31:20;;;;;;;13.53;7.50;;;;;;;4.58;100.00;101564.00;4970292;28;20218;-73
2020/12/18 07:33:47;;;;;;;12.37;7.40;;;;;;;4.52;100.00;101559.44;4972077;28;20210;-73
2020/12/18 07:36:12;;;;;;;13.47;7.33;;;;;;;4.52;100.00;101570.22;4955173;28;20233;-72
2020/12/18 07:38:38;;;;;;;12.33;7.60;;;;;;;4.52;100.00;101556.75;4985746;28;20185;-73
2020/12/18 07:41:08;;;;;;;10.87;7.37;;;;;;;4.60;100.00;101552.00;4957792;28;20256;-74
2020/12/18 07:43:35;;;;;;;10.67;7.83;;;;;;;4.57;100.00;101559.66;4990851;28;20231;-73
2020/12/18 07:46:07;;;;;;;17.50;8.80;;;;;;;4.68;100.00;101559.00;4956592;28;20774;-74
2020/12/18 07:48:37;;;;;;;12.77;9.37;;;;;;;4.71;100.00;101569.34;4992360;28;20240;-74
2020/12/18 07:51:19;;;;;;;14.53;8.50;;;;;;;4.72;100.00;101565.59;4999476;28;20235;-73
2020/12/18 07:53:51;;;;;;;11.37;8.67;;;;;;;4.89;100.00;101572.16;4984383;28;20288;-73
2020/12/18 07:56:20;;;;;;;12.43;8.63;;;;;;;4.86;100.00;101575.28;5015486;28;20256;-72
2020/12/18 07:58:54;;;;;;;14.67;8.70;;;;;;;4.94;100.00;101565.09;4982783;28;20663;-73
2020/12/18 08:01:21;;;;;;;10.70;8.17;;;;;;;5.06;100.00;101566.91;4998432;28;20236;-73
2020/12/18 08:03:50;;;;;;;14.13;9.10;;;;;;;5.05;100.00;101578.72;4981349;28;20201;-73
2020/12/18 08:06:30;;;;;;;16.33;8.67;;;;;;;4.83;100.00;101567.63;5011938;28;20229;-73
2020/12/18 08:08:58;;;;;;;13.57;8.87;;;;;;;4.81;100.00;101575.91;4980402;28;20213;-72
2020/12/18 08:11:29;;;;;;;15.40;9.80;;;;;;;4.80;100.00;101568.03;4995510;28;20229;-72
2020/12/18 08:14:00;;;;;;;11.70;8.63;;;;;;;4.79;100.00;101566.41;4995013;28;20284;-72
2020/12/18 08:16:30;;;;;;;13.43;8.83;;;;;;;4.66;100.00;101569.97;4992003;28;20221;-72
2020/12/18 08:19:01;;;;;;;14.43;9.40;;;;;;;4.62;100.00;101578.69;4977712;28;20236;-74
2020/12/18 08:21:37;;;;;;;11.83;8.37;;;;;;;4.55;100.00;101564.41;4977470;28;20655;-73
2020/12/18 08:24:18;;;;;;;12.57;7.90;;;;;;;4.69;100.00;101566.03;4961376;28;20647;-73
2020/12/18 08:26:54;;;;;;;12.77;8.70;;;;;;;4.72;100.00;101552.97;4976820;28;20612;-72
2020/12/18 08:29:20;;;;;;;14.20;9.30;;;;;;;4.78;100.00;101559.38;4977987;28;20682;-73
2020/12/18 08:31:46;;;;;;;16.27;8.97;;;;;;;4.83;100.00;101551.50;4976677;28;20229;-73
2020/12/18 08:34:12;;;;;;;11.80;8.87;;;;;;;4.92;100.00;101555.59;4961023;28;20186;-73
2020/12/18 08:36:43;;;;;;;14.00;9.10;;;;;;;4.93;100.00;101552.69;4960706;28;20726;-73
2020/12/18 08:39:11;;;;;;;12.57;8.67;;;;;;;5.08;100.00;101562.13;4977279;28;20197;-73
2020/12/18 08:41:49;;;;;;;14.33;9.23;;;;;;;5.08;100.00;101555.94;4977828;28;20257;-73
2020/12/18 08:44:22;;;;;;;13.83;8.80;;;;;;;5.10;100.00;101559.22;4957174;28;20675;-73
2020/12/18 08:46:48;;;;;;;13.70;8.70;;;;;;;5.29;100.00;101559.09;4992788;28;20734;-73
2020/12/18 08:49:21;;;;;;;11.77;8.47;;;;;;;5.27;100.00;101561.19;4976621;28;20201;-73
2020/12/18 08:51:50;;;;;;;12.73;7.97;;;;;;;5.36;100.00;101565.28;4976674;28;20256;-73
2020/12/18 08:54:30;;;;;;;12.93;8.50;;;;;;;5.46;100.00;101560.28;4960225;28;20170;-73
2020/12/18 08:57:17;;;;;;;12.30;8.47;;;;;;;5.58;100.00;101563.91;4991231;28;20236;-73
2020/12/18 09:00:08;;;;;;;12.67;7.87;;;;;;;5.61;100.00;101560.78;4992635;28;20189;-73
2020/12/18 09:02:38;;;;;;;12.97;7.20;;;;;;;5.63;100.00;101567.59;4992210;28;20686;-73
2020/12/18 09:05:10;;;;;;;13.83;7.80;;;;;;;5.63;100.00;101566.78;4976097;28;20598;-73
2020/12/18 09:07:43;;;;;;;12.00;7.67;;;;;;;5.65;100.00;101562.00;4992711;28;20201;-73
2020/12/18 09:10:09;;;;;;;13.30;7.67;;;;;;;5.74;100.00;101563.41;4975575;28;20276;-73
2020/12/18 09:12:42;;;;;;;11.00;6.67;;;;;;;5.79;100.00;101565.22;4976120;28;20177;-73
2020/12/18 09:15:24;;;;;;;8.27;6.63;;;;;;;5.84;100.00;101564.56;4975139;28;20213;-73
2020/12/18 09:18:10;;;;;;;9.30;6.70;;;;;;;5.94;100.00;101560.34;4952933;28;20703;-73
2020/12/18 09:20:39;;;;;;;10.63;6.80;;;;;;;6.12;100.00;101563.09;4972306;28;20228;-73
2020/12/18 09:23:12;;;;;;;9.20;6.63;;;;;;;6.11;100.00;101564.13;4957180;28;20192;-73
2020/12/18 09:25:39;;;;;;;9.43;6.80;;;;;;;6.35;100.00;101564.09;4956262;28;20716;-73
2020/12/18 09:28:10;;;;;;;10.83;6.70;;;;;;;6.46;100.00;101557.13;4957361;28;20181;-73
2020/12/18 09:30:35;;;;;;;8.30;6.53;;;;;;;6.50;100.00;101563.72;4972313;28;20272;-73
2020/12/18 09:33:14;;;;;;;8.80;5.80;;;;;;;6.52;100.00;101560.59;4956659;28;20182;-73
2020/12/18 09:35:42;;;;;;;10.33;6.10;;;;;;;6.59;100.00;101555.97;4971474;28;20234;-73
2020/12/18 09:38:08;;;;;;;8.67;5.80;;;;;;;6.64;100.00;101555.28;4972711;28;20224;-73
2020/12/18 09:40:39;;;;;;;8.80;5.30;;;;;;;6.81;100.00;101554.44;4972026;28;20349;-73
2020/12/18 09:43:06;;;;;;;8.30;5.67;;;;;;;7.02;100.00;101552.09;4965395;28;20198;-73
2020/12/18 09:45:32;;;;;;;6.53;5.07;;;;;;;7.04;100.00;101543.78;4979560;28;20535;-73
2020/12/18 09:47:58;;;;;;;7.07;4.80;;;;;;;7.18;100.00;101546.06;4975209;28;20185;-73
2020/12/18 09:50:24;;;;;;;6.27;4.67;;;;;;;7.29;100.00;101548.81;4991425;28;20760;-74
2020/12/18 09:52:49;;;;;;;8.73;4.83;;;;;;;7.39;100.00;101543.69;4960151;28;20197;-73
2020/12/18 09:55:15;;;;;;;6.77;4.57;;;;;;;7.46;100.00;101543.59;4974898;28;20538;-73
2020/12/18 09:57:43;;;;;;;8.87;4.20;;;;;;;7.53;100.00;101541.63;4958957;28;20213;-73
2020/12/18 10:00:09;;;;;;;7.20;4.03;;;;;;;7.74;100.00;101536.47;4992168;28;20549;-73
2020/12/18 10:02:40;;;;;;;4.57;3.50;;;;;;;7.67;100.00;101541.16;4991196;28;20267;-73
2020/12/18 10:05:06;;;;;;;6.30;3.57;;;;;;;7.70;100.00;101541.53;4991063;28;20679;-73
2020/12/18 10:07:32;;;;;;;5.83;3.00;;;;;;;7.84;100.00;101534.06;4975519;28;20174;-73
2020/12/18 10:10:00;;;;;;;3.67;3.10;;;;;;;7.94;98.45;101529.69;4975474;28;20263;-73
2020/12/18 10:12:28;;;;;;;5.93;3.23;;;;;;;8.04;99.16;101532.66;4992176;28;20367;-73
2020/12/18 10:14:54;;;;;;;5.80;3.20;;;;;;;8.07;97.49;101532.16;4991175;28;20213;-72
2020/12/18 10:17:19;;;;;;;5.97;4.03;;;;;;;8.22;97.15;101527.13;4985869;28;20717;-73
2020/12/18 10:19:45;;;;;;;7.60;4.43;;;;;;;8.18;97.12;101534.09;4988489;28;20194;-73
2020/12/18 10:22:10;;;;;;;7.77;3.70;;;;;;;8.20;97.07;101532.78;4971915;28;20245;-73
2020/12/18 10:24:36;;;;;;;4.83;2.83;;;;;;;8.24;97.07;101525.88;4956133;28;20209;-72
2020/12/18 10:27:02;;;;;;;5.93;2.83;;;;;;;8.28;95.88;101524.34;4971339;28;20222;-73
2020/12/18 10:29:27;;;;;;;3.13;2.60;;;;;;;8.32;95.05;101530.09;4956796;28;20241;-73
2020/12/18 10:31:58;;;;;;;4.13;2.87;;;;;;;8.18;95.66;101528.69;4971500;28;20226;-73
2020/12/18 10:34:25;;;;;;;4.47;2.70;;;;;;;8.46;93.86;101521.47;4971347;28;20618;-73
2020/12/18 10:36:54;;;;;;;4.07;2.50;;;;;;;8.46;93.96;101532.28;4971558;28;20292;-73
2020/12/18 10:39:23;;;;;;;4.17;2.80;;;;;;;8.31;94.71;101533.84;4971773;28;20183;-73
2020/12/18 10:41:51;;;;;;;6.13;2.63;;;;;;;8.26;94.85;101531.88;4954603;28;20229;-74
2020/12/18 10:44:19;;;;;;;6.00;2.83;;;;;;;8.48;93.42;101530.22;4970782;28;20190;-73
2020/12/18 10:46:50;;;;;;;4.43;2.73;;;;;;;8.66;92.75;101527.34;4988484;28;20721;-73
2020/12/18 10:49:20;;;;;;;5.33;3.93;;;;;;;8.62;93.00;101532.41;4959953;28;20367;-73
2020/12/18 10:51:46;;;;;;;3.87;2.70;;;;;;;8.77;91.81;101516.47;4989264;28;20225;-73
2020/12/18 10:54:14;;;;;;;6.80;3.00;;;;;;;8.79;91.73;101517.06;4990154;28;20297;-74
2020/12/18 10:56:41;;;;;;;6.03;2.93;;;;;;;8.96;89.68;101516.06;4989626;28;20225;-73
2020/12/18 10:59:07;;;;;;;9.60;4.70;;;;;;;8.97;89.81;101517.72;4990716;28;20254;-74
2020/12/18 11:01:32;;;;;;;22.37;11.57;;;;;;;8.98;90.10;101521.25;4973530;28;20236;-73
2020/12/18 11:04:00;;;;;;;16.73;13.53;;;;;;;9.10;89.49;101514.75;5006703;28;20177;-73
2020/12/18 11:06:26;;;;;;;4.87;4.33;;;;;;;9.07;89.23;101520.63;4987236;28;20226;-73
2020/12/18 11:08:52;;;;;;;7.17;3.43;;;;;;;9.07;88.65;101514.41;4987210;28;20823;-73
2020/12/18 11:11:22;;;;;;;6.07;4.73;;;;;;;9.12;89.99;101528.88;4972716;28;20722;-74
2020/12/18 11:13:50;;;;;;;4.87;3.00;;;;;;;9.17;89.16;101523.53;4973922;28;20190;-73
2020/12/18 11:16:19;;;;;;;5.57;3.47;;;;;;;9.41;88.08;101519.63;4957757;28;20228;-74
2020/12/18 11:18:46;;;;;;;6.27;3.10;;;;;;;9.30;89.11;101518.66;4990400;28;20178;-74
2020/12/18 11:21:12;;;;;;;5.67;3.07;;;;;;;9.34;88.74;101518.97;4989182;28;20213;-73
2020/12/18 11:23:38;;;;;;;4.80;2.93;;;;;;;9.43;87.11;101514.78;5006369;28;20192;-73
2020/12/18 11:26:05;;;;;;;6.73;3.17;;;;;;;9.22;87.66;101518.22;4988746;28;20593;-73
2020/12/18 11:28:31;;;;;;;4.53;2.63;;;;;;;9.25;87.52;101531.28;5006083;28;20248;-74
2020/12/18 11:30:59;;;;;;;4.20;2.70;;;;;;;9.20;87.96;101531.19;4989530;28;20221;-74
2020/12/18 11:33:27;;;;;;;5.77;3.07;;;;;;;9.20;88.69;101535.78;4990058;28;20193;-73
2020/12/18 11:36:00;;;;;;;4.20;2.87;;;;;;;9.20;88.97;101528.47;4972701;28;20244;-74
2020/12/18 11:38:29;;;;;;;5.27;3.00;;;;;;;9.32;88.32;101530.06;5004457;28;20639;-74
2020/12/18 11:40:54;;;;;;;4.73;2.70;;;;;;;9.34;87.73;101527.09;4989309;28;20579;-74
2020/12/18 11:43:20;;;;;;;6.17;3.60;;;;;;;9.26;87.85;101519.34;4954525;28;20182;-74
2020/12/18 11:45:46;;;;;;;5.33;3.33;;;;;;;9.29;87.87;101513.47;4993074;28;20579;-72
2020/12/18 11:48:11;;;;;;;3.70;2.83;;;;;;;9.28;87.85;101523.47;4988646;28;20545;-73
2020/12/18 11:50:37;;;;;;;5.20;2.87;;;;;;;9.21;88.36;101519.25;4987815;28;20951;-73